Time;durP1;ratioP1;P1;durP2;ratioP2;P2;SDS_P1;SDS_P2;PMS_P1;PMS_P2;Temp;Humidity;BMP_temperature;BMP_pressure;BME280_temperature;BME280_humidity;BME280_pressure;Samples;Min_cycle;Max_cycle;Signal;HPM_P1;HPM_P2
2022/11/19 00:02:08;;;;;;;6.17;4.70;;;;;;;6.10;100.00;95843.06;4946098;28;20189;-69
2022/11/19 00:04:33;;;;;;;5.47;4.97;;;;;;;6.07;100.00;95840.13;4972586;28;20184;-68
2022/11/19 00:06:59;;;;;;;5.73;5.40;;;;;;;5.99;100.00;95840.41;4978585;28;20695;-69
2022/11/19 00:09:25;;;;;;;5.30;5.00;;;;;;;5.94;100.00;95841.06;4967922;28;20180;-69
2022/11/19 00:14:34;;;;;;;4.40;4.20;;;;;;;6.04;100.00;95840.53;4983348;28;20656;-68
2022/11/19 00:17:00;;;;;;;4.10;3.80;;;;;;;5.98;100.00;95828.41;4959490;28;20192;-71
2022/11/19 00:19:26;;;;;;;4.93;4.63;;;;;;;6.00;100.00;95832.41;4971615;28;20212;-68
2022/11/19 00:21:51;;;;;;;4.70;4.30;;;;;;;6.04;100.00;95830.13;4995646;28;20234;-68
2022/11/19 00:24:17;;;;;;;4.60;4.30;;;;;;;6.00;100.00;95826.41;4978186;28;20561;-69
2022/11/19 00:26:42;;;;;;;4.23;4.03;;;;;;;5.99;100.00;95832.59;4992874;28;20338;-69
2022/11/19 00:29:12;;;;;;;4.10;3.90;;;;;;;6.10;100.00;95834.47;4994085;28;20228;-69
2022/11/19 00:31:38;;;;;;;3.90;3.70;;;;;;;6.09;100.00;95833.66;4989271;28;20280;-69
2022/11/19 00:34:03;;;;;;;4.43;4.13;;;;;;;6.01;100.00;95831.38;4976880;28;20681;-68
2022/11/19 00:36:29;;;;;;;4.93;4.57;;;;;;;6.02;100.00;95829.59;4976566;28;20188;-68
2022/11/19 00:38:54;;;;;;;5.07;4.77;;;;;;;6.03;100.00;95833.75;4983853;28;20188;-69
2022/11/19 00:41:20;;;;;;;4.67;4.20;;;;;;;6.09;100.00;95840.66;4991863;28;20224;-68
2022/11/19 00:43:45;;;;;;;4.70;4.40;;;;;;;6.07;100.00;95835.72;4975996;28;20181;-70
2022/11/19 00:46:12;;;;;;;4.17;3.87;;;;;;;6.02;100.00;95835.56;4976042;28;20665;-68
2022/11/19 00:48:38;;;;;;;4.40;4.10;;;;;;;6.11;100.00;95831.66;4976736;28;20192;-68
2022/11/19 00:51:04;;;;;;;3.80;3.60;;;;;;;5.98;100.00;95837.00;4966773;28;20192;-68
2022/11/19 00:53:30;;;;;;;4.40;4.10;;;;;;;5.96;100.00;95830.47;4976285;28;20180;-68
2022/11/19 00:56:00;;;;;;;5.10;4.70;;;;;;;5.97;100.00;95835.44;4975828;28;20729;-70
2022/11/19 00:58:26;;;;;;;5.03;4.63;;;;;;;5.91;100.00;95830.34;4987663;28;20681;-69
2022/11/19 01:00:51;;;;;;;4.30;4.10;;;;;;;5.98;100.00;95829.22;4979699;28;20263;-69
2022/11/19 01:03:16;;;;;;;4.60;4.30;;;;;;;6.02;100.00;95826.97;4981340;28;20180;-70
2022/11/19 01:05:42;;;;;;;5.20;4.80;;;;;;;6.05;100.00;95824.72;4995022;28;20180;-69
2022/11/19 01:08:07;;;;;;;4.90;4.60;;;;;;;6.08;100.00;95828.66;4994801;28;20680;-69
2022/11/19 01:10:34;;;;;;;4.50;4.20;;;;;;;5.97;100.00;95830.22;4962235;28;20770;-69
2022/11/19 01:15:47;;;;;;;4.50;4.23;;;;;;;6.07;100.00;95827.13;4995042;28;20182;-69
2022/11/19 01:18:13;;;;;;;4.83;4.53;;;;;;;6.09;100.00;95825.84;4977555;28;20176;-69
2022/11/19 01:20:38;;;;;;;4.27;4.07;;;;;;;6.05;100.00;95827.31;4979062;28;20617;-68
2022/11/19 01:23:03;;;;;;;4.73;4.50;;;;;;;6.13;100.00;95834.03;4975482;28;20199;-69
2022/11/19 01:25:29;;;;;;;4.27;4.07;;;;;;;6.01;100.00;95830.59;4975624;28;20195;-69
2022/11/19 01:27:56;;;;;;;5.37;4.87;;;;;;;6.04;100.00;95825.72;4974911;28;20196;-71
2022/11/19 01:30:22;;;;;;;4.03;3.83;;;;;;;6.07;100.00;95827.13;4959568;28;20266;-68
2022/11/19 01:32:47;;;;;;;4.23;3.80;;;;;;;6.03;100.00;95828.53;4975509;28;20625;-68
2022/11/19 01:35:12;;;;;;;5.87;4.47;;;;;;;5.99;100.00;95825.59;4982380;28;20266;-68
2022/11/19 01:37:38;;;;;;;4.20;4.00;;;;;;;6.09;100.00;95820.66;4994559;28;20531;-70
2022/11/19 01:40:04;;;;;;;4.53;4.23;;;;;;;6.06;100.00;95826.31;4945869;28;20197;-69
2022/11/19 01:42:50;;;;;;;4.60;4.30;;;;;;;5.94;100.00;95822.88;4973705;28;20239;-70
2022/11/19 01:45:21;;;;;;;4.67;4.37;;;;;;;5.89;100.00;95822.75;4976835;28;20187;-70
2022/11/19 01:47:47;;;;;;;5.10;4.87;;;;;;;5.99;100.00;95836.00;4994430;28;20238;-69
2022/11/19 01:50:12;;;;;;;5.20;4.90;;;;;;;5.85;100.00;95832.75;4975608;28;20672;-70
2022/11/19 01:52:41;;;;;;;5.07;4.67;;;;;;;5.93;100.00;95838.69;4947152;28;20184;-69
2022/11/19 01:55:07;;;;;;;5.93;5.53;;;;;;;5.85;100.00;95835.34;4984728;28;20239;-68
2022/11/19 01:57:34;;;;;;;6.00;5.70;;;;;;;5.79;100.00;95838.06;4957620;28;20259;-69
2022/11/19 01:59:59;;;;;;;5.43;5.13;;;;;;;5.77;100.00;95840.06;4991099;28;20199;-68
2022/11/19 02:02:25;;;;;;;5.20;4.80;;;;;;;5.69;100.00;95842.97;4993758;28;20188;-70
2022/11/19 02:04:51;;;;;;;5.03;4.70;;;;;;;5.64;100.00;95838.41;4993919;28;20180;-70
2022/11/19 02:07:23;;;;;;;5.10;4.60;;;;;;;5.64;100.00;95842.81;4962763;28;20212;-70
2022/11/19 02:09:49;;;;;;;5.30;4.90;;;;;;;5.63;100.00;95843.84;4989300;28;20247;-67
2022/11/19 02:12:20;;;;;;;5.70;5.20;;;;;;;5.61;100.00;95859.66;4992238;28;20180;-68
2022/11/19 02:15:00;;;;;;;5.90;5.40;;;;;;;5.62;100.00;95843.06;4994276;28;20187;-67
2022/11/19 02:17:48;;;;;;;6.30;5.70;;;;;;;5.68;100.00;95839.59;4994125;28;20644;-68
2022/11/19 02:20:23;;;;;;;5.47;5.07;;;;;;;5.53;100.00;95843.56;4976129;28;20176;-68
2022/11/19 02:22:57;;;;;;;5.30;4.97;;;;;;;5.60;100.00;95844.28;4981297;28;20183;-68
2022/11/19 02:25:22;;;;;;;5.70;5.20;;;;;;;5.55;100.00;95844.13;4981053;28;20188;-69
2022/11/19 02:28:19;;;;;;;5.80;5.40;;;;;;;5.66;100.00;95840.81;4956817;28;20575;-67
2022/11/19 02:30:50;;;;;;;6.00;5.60;;;;;;;5.70;100.00;95844.56;4934513;29;20178;-69
2022/11/19 02:33:28;;;;;;;6.30;5.80;;;;;;;5.64;100.00;95841.03;4935751;29;20553;-69
2022/11/19 02:36:01;;;;;;;6.23;5.67;;;;;;;5.69;100.00;95848.94;4934853;29;20182;-69
2022/11/19 02:38:39;;;;;;;5.60;5.10;;;;;;;5.63;100.00;95847.22;4935700;29;20222;-69
2022/11/19 02:41:33;;;;;;;6.27;5.87;;;;;;;5.69;100.00;95850.75;4935044;29;20212;-69
2022/11/19 02:47:12;;;;;;;5.60;5.20;;;;;;;5.69;100.00;95845.56;4935258;29;20208;-68
2022/11/19 02:49:42;;;;;;;6.50;5.90;;;;;;;5.70;100.00;95850.53;4934221;29;20197;-69
2022/11/19 02:52:08;;;;;;;6.00;5.60;;;;;;;5.83;100.00;95847.00;4934522;29;20170;-69
2022/11/19 02:54:33;;;;;;;5.33;4.93;;;;;;;5.76;100.00;95848.88;4934141;29;20182;-69
2022/11/19 02:56:59;;;;;;;6.17;5.70;;;;;;;5.86;100.00;95855.13;4934218;29;20189;-69
2022/11/19 03:05:29;;;;;;;6.13;5.73;;;;;;;5.84;100.00;95867.59;4935462;29;20217;-69
2022/11/19 03:07:54;;;;;;;6.30;5.80;;;;;;;5.85;100.00;95856.16;4935338;29;20209;-70
2022/11/19 03:10:24;;;;;;;5.77;5.37;;;;;;;5.99;100.00;95867.22;4935036;29;20222;-69
2022/11/19 03:18:45;;;;;;;5.37;4.90;;;;;;;5.93;100.00;95862.91;4935102;29;20703;-69
2022/11/19 03:21:37;;;;;;;5.47;5.00;;;;;;;6.01;100.00;95860.00;4920068;29;20193;-68
2022/11/19 03:24:17;;;;;;;5.60;5.10;;;;;;;6.02;100.00;95866.00;4935185;29;20651;-68
2022/11/19 03:26:54;;;;;;;4.87;4.57;;;;;;;6.08;100.00;95857.28;4934125;29;20238;-68
2022/11/19 03:29:22;;;;;;;6.00;5.63;;;;;;;6.07;100.00;95860.94;4949338;28;20239;-69
2022/11/19 03:31:51;;;;;;;5.57;5.17;;;;;;;5.98;100.00;95862.22;4955711;28;20196;-67
2022/11/19 03:34:22;;;;;;;5.33;4.83;;;;;;;6.00;100.00;95868.00;4953427;28;20278;-70
2022/11/19 03:36:50;;;;;;;5.40;5.00;;;;;;;6.04;100.00;95869.16;4938007;28;20215;-70
2022/11/19 03:39:18;;;;;;;7.07;5.27;;;;;;;6.04;100.00;95867.34;4961311;28;20177;-70
2022/11/19 03:41:47;;;;;;;6.00;5.43;;;;;;;6.05;100.00;95870.75;4957280;28;20220;-68
2022/11/19 03:44:22;;;;;;;5.27;4.77;;;;;;;6.03;100.00;95867.56;4958159;28;20203;-69
2022/11/19 03:46:52;;;;;;;5.53;5.13;;;;;;;5.95;100.00;95873.88;4957005;28;20205;-69
2022/11/19 03:49:26;;;;;;;5.30;4.90;;;;;;;6.00;100.00;95870.63;4973771;28;20189;-69
2022/11/19 03:52:03;;;;;;;5.27;4.87;;;;;;;6.01;100.00;95875.59;4971222;28;20173;-69
2022/11/19 03:54:29;;;;;;;5.10;4.80;;;;;;;5.96;100.00;95877.28;4975922;28;20197;-69
2022/11/19 03:56:57;;;;;;;4.83;4.53;;;;;;;5.93;100.00;95883.69;4965695;28;20195;-71
2022/11/19 03:59:23;;;;;;;4.60;4.30;;;;;;;5.96;100.00;95872.06;4957719;28;20682;-70
2022/11/19 04:01:51;;;;;;;4.53;4.23;;;;;;;5.97;100.00;95871.84;4957874;28;20196;-72
2022/11/19 04:07:10;;;;;;;4.83;4.53;;;;;;;6.07;100.00;95886.94;4969103;28;20255;-69
2022/11/19 04:09:37;;;;;;;5.47;5.10;;;;;;;6.07;100.00;95889.53;4975004;28;20180;-69
2022/11/19 04:12:03;;;;;;;5.67;5.17;;;;;;;6.01;100.00;95885.22;4975199;28;20192;-69
2022/11/19 04:14:29;;;;;;;6.43;5.97;;;;;;;5.99;100.00;95888.03;4976618;28;20236;-69
2022/11/19 04:16:54;;;;;;;6.07;5.10;;;;;;;6.12;100.00;95890.47;4976254;28;20181;-68
2022/11/19 04:19:20;;;;;;;5.90;5.43;;;;;;;6.08;100.00;95885.91;4975502;28;20196;-69
2022/11/19 04:21:45;;;;;;;6.10;5.60;;;;;;;5.99;100.00;95887.22;4957344;28;20209;-68
2022/11/19 04:24:11;;;;;;;6.53;6.13;;;;;;;6.06;100.00;95887.94;4957083;28;20193;-69
2022/11/19 04:26:36;;;;;;;6.30;5.80;;;;;;;6.04;100.00;95889.97;4966127;28;20209;-68
2022/11/19 04:29:02;;;;;;;5.80;5.30;;;;;;;6.03;100.00;95883.97;4970484;28;20236;-69
2022/11/19 04:31:27;;;;;;;6.60;6.00;;;;;;;6.17;100.00;95882.78;4993537;28;20317;-69
2022/11/19 04:33:53;;;;;;;5.77;5.37;;;;;;;6.07;100.00;95882.53;4995675;28;20191;-69
2022/11/19 04:36:18;;;;;;;6.07;5.63;;;;;;;6.07;100.00;95877.31;4995793;28;20199;-68
2022/11/19 04:38:44;;;;;;;6.13;5.67;;;;;;;6.09;100.00;95879.69;4995414;28;20637;-69
2022/11/19 04:41:09;;;;;;;6.70;6.10;;;;;;;5.95;100.00;95884.28;4981300;28;20199;-68
2022/11/19 04:43:34;;;;;;;6.63;6.03;;;;;;;6.08;100.00;95888.50;4995499;28;20282;-68
2022/11/19 04:46:00;;;;;;;6.03;5.73;;;;;;;5.95;100.00;95886.09;4995506;28;20184;-68
2022/11/19 04:48:25;;;;;;;5.90;5.50;;;;;;;5.92;100.00;95884.69;4977659;28;20618;-68
2022/11/19 04:50:50;;;;;;;6.13;5.67;;;;;;;5.93;100.00;95888.91;4981356;28;20189;-69
2022/11/19 04:53:16;;;;;;;6.10;5.70;;;;;;;5.96;100.00;95880.66;4970744;28;20672;-69
2022/11/19 04:55:42;;;;;;;6.43;6.00;;;;;;;6.01;100.00;95886.00;4976110;28;20635;-68
2022/11/19 04:58:07;;;;;;;6.57;6.07;;;;;;;5.96;100.00;95883.28;4976100;28;20239;-69
2022/11/19 05:00:33;;;;;;;7.07;6.57;;;;;;;5.98;100.00;95890.84;4981056;28;20618;-67
2022/11/19 05:02:58;;;;;;;6.40;5.90;;;;;;;6.01;100.00;95890.41;4995311;28;20191;-68
2022/11/19 05:05:24;;;;;;;6.17;5.77;;;;;;;5.98;100.00;95885.63;4995090;28;20191;-69
2022/11/19 05:07:49;;;;;;;6.60;6.10;;;;;;;6.02;100.00;95892.78;4977384;28;20216;-69
2022/11/19 05:10:14;;;;;;;6.70;6.17;;;;;;;5.93;100.00;95894.09;4974685;28;20211;-68
2022/11/19 05:12:40;;;;;;;7.50;6.80;;;;;;;5.85;100.00;95896.97;4958679;28;20181;-68
2022/11/19 05:15:05;;;;;;;7.23;6.63;;;;;;;5.83;100.00;95897.19;4975457;28;20243;-68
2022/11/19 05:17:31;;;;;;;7.83;7.33;;;;;;;5.84;100.00;95890.97;4975763;28;20196;-68
2022/11/19 05:19:58;;;;;;;7.83;7.33;;;;;;;5.89;100.00;95887.75;4991080;28;20176;-68
2022/11/19 05:22:24;;;;;;;7.23;6.83;;;;;;;5.91;100.00;95890.91;4959823;28;20550;-71
2022/11/19 05:24:49;;;;;;;7.40;6.87;;;;;;;5.82;100.00;95889.59;4974892;28;20188;-68
2022/11/19 05:27:15;;;;;;;7.53;7.03;;;;;;;5.82;100.00;95890.41;4985205;28;20208;-68
2022/11/19 05:29:40;;;;;;;6.87;6.37;;;;;;;5.81;100.00;95890.59;4985074;28;20239;-68
2022/11/19 05:32:05;;;;;;;6.77;6.27;;;;;;;5.85;100.00;95895.16;4992161;28;20188;-68
2022/11/19 05:34:31;;;;;;;7.20;6.70;;;;;;;5.81;100.00;95893.22;4994654;28;20188;-68
2022/11/19 05:36:56;;;;;;;7.63;6.93;;;;;;;5.84;100.00;95885.00;4987669;28;20189;-68
2022/11/19 05:39:21;;;;;;;6.93;6.33;;;;;;;5.86;100.00;95886.34;4957966;28;20271;-68
2022/11/19 05:41:47;;;;;;;7.17;6.40;;;;;;;5.80;100.00;95891.63;4971088;28;20191;-68
2022/11/19 05:44:12;;;;;;;7.30;6.73;;;;;;;5.88;100.00;95896.56;4994101;28;20215;-68
2022/11/19 05:46:37;;;;;;;7.93;7.33;;;;;;;5.78;100.00;95884.06;4994177;28;20192;-68
2022/11/19 05:49:03;;;;;;;7.33;6.73;;;;;;;5.76;100.00;95895.69;4976786;28;20230;-68
2022/11/19 05:51:28;;;;;;;7.53;6.93;;;;;;;5.78;100.00;95886.66;4985587;28;20211;-68
2022/11/19 05:53:54;;;;;;;7.73;7.03;;;;;;;5.81;100.00;95886.22;4986412;28;20191;-69
2022/11/19 05:56:19;;;;;;;7.67;7.07;;;;;;;5.76;100.00;95896.47;4979721;28;20200;-68
2022/11/19 05:58:44;;;;;;;6.87;6.37;;;;;;;5.76;100.00;95899.06;4975049;28;20199;-69
2022/11/19 06:01:10;;;;;;;7.17;6.67;;;;;;;5.79;100.00;95893.44;4957458;28;20207;-69
2022/11/19 06:03:35;;;;;;;6.93;6.43;;;;;;;5.78;100.00;95904.84;4989046;28;20268;-68
2022/11/19 06:06:01;;;;;;;7.50;6.90;;;;;;;5.84;100.00;95905.78;4993789;28;20219;-69
2022/11/19 06:08:26;;;;;;;7.10;6.60;;;;;;;5.80;100.00;95905.41;4976581;28;20604;-69
2022/11/19 06:10:51;;;;;;;7.23;6.63;;;;;;;5.74;100.00;95906.28;4993941;28;20673;-72
2022/11/19 06:13:17;;;;;;;7.70;6.97;;;;;;;5.74;100.00;95908.88;4987198;28;20522;-69
2022/11/19 06:15:42;;;;;;;7.00;6.47;;;;;;;5.77;100.00;95911.06;4974866;28;20554;-68
2022/11/19 06:18:07;;;;;;;6.93;6.33;;;;;;;5.85;100.00;95915.19;4974479;28;20193;-69
2022/11/19 06:20:33;;;;;;;6.00;5.60;;;;;;;5.87;100.00;95910.56;4957430;28;20211;-69
2022/11/19 06:22:58;;;;;;;7.57;6.87;;;;;;;5.79;100.00;95911.66;4978041;28;20227;-69
2022/11/19 06:25:23;;;;;;;6.53;6.13;;;;;;;5.80;100.00;95913.22;4986218;28;20188;-68
2022/11/19 06:27:49;;;;;;;6.67;6.27;;;;;;;5.67;100.00;95915.19;4976313;28;20564;-67
2022/11/19 06:30:15;;;;;;;6.23;5.70;;;;;;;5.81;100.00;95917.41;4975668;28;20232;-69
2022/11/19 06:32:41;;;;;;;6.50;6.00;;;;;;;5.80;100.00;95913.22;4985286;28;20190;-68
2022/11/19 06:35:07;;;;;;;6.30;5.90;;;;;;;5.80;100.00;95915.81;4974538;28;20192;-69
2022/11/19 06:37:32;;;;;;;6.00;5.60;;;;;;;5.75;100.00;95923.47;4975993;28;20200;-68
2022/11/19 06:39:58;;;;;;;5.70;5.40;;;;;;;5.74;100.00;95927.09;4993675;28;20188;-68
2022/11/19 06:42:35;;;;;;;5.97;5.67;;;;;;;5.74;100.00;95923.72;4992874;28;20219;-68
2022/11/19 06:45:08;;;;;;;6.40;5.90;;;;;;;5.88;100.00;95932.97;4961024;28;20184;-69
2022/11/19 06:47:34;;;;;;;6.80;6.30;;;;;;;6.01;100.00;95932.81;4974137;28;20287;-69
2022/11/19 06:49:59;;;;;;;6.47;6.07;;;;;;;5.96;100.00;95935.28;4974138;28;20211;-69
2022/11/19 06:52:25;;;;;;;6.73;6.23;;;;;;;5.86;100.00;95934.94;4974067;28;20638;-68
2022/11/19 06:54:51;;;;;;;6.77;6.33;;;;;;;5.97;100.00;95936.84;4989885;28;20192;-69
2022/11/19 06:57:16;;;;;;;6.43;6.03;;;;;;;5.98;100.00;95946.25;4993323;28;20218;-68
2022/11/19 06:59:41;;;;;;;6.43;5.83;;;;;;;5.92;100.00;95954.13;4993588;28;20218;-68
2022/11/19 07:02:10;;;;;;;6.40;6.00;;;;;;;5.86;100.00;95959.16;4983165;28;20215;-69
2022/11/19 07:04:35;;;;;;;28.80;26.80;;;;;;;5.84;100.00;95956.00;4956923;28;20208;-69
2022/11/19 07:07:01;;;;;;;7.23;6.67;;;;;;;5.92;100.00;95954.91;4973772;28;20243;-68
2022/11/19 07:09:26;;;;;;;6.30;5.97;;;;;;;5.97;100.00;95959.47;4974224;28;20208;-69
2022/11/19 07:11:51;;;;;;;6.50;6.10;;;;;;;5.96;100.00;95952.69;4975547;28;20192;-69
2022/11/19 07:14:17;;;;;;;6.17;5.67;;;;;;;5.95;100.00;95956.31;4989623;28;20184;-68
2022/11/19 07:16:42;;;;;;;6.00;5.50;;;;;;;6.03;100.00;95961.19;4996863;28;20641;-68
2022/11/19 07:19:08;;;;;;;6.33;5.83;;;;;;;5.98;100.00;95956.66;4994447;28;20280;-69
2022/11/19 07:21:34;;;;;;;6.23;5.80;;;;;;;6.03;100.00;95964.59;4977669;28;20212;-68
2022/11/19 07:24:01;;;;;;;6.33;5.83;;;;;;;6.01;100.00;95964.03;4986656;28;20540;-68
2022/11/19 07:26:26;;;;;;;6.43;6.03;;;;;;;5.93;100.00;95958.31;4977353;28;20208;-69
2022/11/19 07:28:52;;;;;;;6.00;5.60;;;;;;;5.88;100.00;95971.97;4976597;28;20711;-69
2022/11/19 07:31:17;;;;;;;5.67;5.27;;;;;;;5.84;100.00;95968.19;4977424;28;20277;-68
2022/11/19 07:33:43;;;;;;;7.10;6.70;;;;;;;5.83;100.00;95967.41;4977870;28;20578;-68
2022/11/19 07:36:13;;;;;;;5.70;5.40;;;;;;;5.80;100.00;95974.81;4977388;28;20342;-66
2022/11/19 07:38:39;;;;;;;9.63;8.83;;;;;;;5.79;100.00;95976.66;4966295;28;20203;-67
2022/11/19 07:43:49;;;;;;;5.77;5.47;;;;;;;6.02;100.00;95983.81;4995951;28;20182;-68
2022/11/19 07:46:14;;;;;;;5.47;5.17;;;;;;;6.08;100.00;95992.53;4996343;28;20184;-66
2022/11/19 07:48:39;;;;;;;5.70;5.40;;;;;;;6.26;100.00;95989.94;4994896;28;20674;-66
2022/11/19 07:51:05;;;;;;;6.00;5.57;;;;;;;6.20;100.00;95986.41;4977087;28;20268;-67
2022/11/19 07:53:30;;;;;;;5.33;4.93;;;;;;;6.39;100.00;95983.78;4977297;28;20501;-67
2022/11/19 07:55:59;;;;;;;5.03;4.77;;;;;;;6.40;100.00;95993.19;4959851;28;20181;-68
2022/11/19 07:58:24;;;;;;;5.23;4.93;;;;;;;6.51;100.00;95982.81;4991790;28;20203;-68
2022/11/19 08:00:49;;;;;;;4.90;4.53;;;;;;;6.69;100.00;95989.78;4977283;28;20192;-67
2022/11/19 08:03:15;;;;;;;5.87;5.57;;;;;;;6.66;100.00;95982.41;4976945;28;20200;-67
2022/11/19 08:05:40;;;;;;;5.40;5.10;;;;;;;6.54;100.00;95989.38;4976842;28;20192;-67
2022/11/19 08:08:06;;;;;;;4.87;4.57;;;;;;;6.79;100.00;95994.47;4976943;28;20208;-67
2022/11/19 08:10:31;;;;;;;5.43;4.77;;;;;;;6.84;100.00;95992.78;4992712;28;20255;-67
2022/11/19 08:13:02;;;;;;;4.80;4.50;;;;;;;6.81;100.00;95992.41;4978056;28;20222;-68
2022/11/19 08:15:32;;;;;;;3.37;3.17;;;;;;;6.78;100.00;95996.28;4989299;28;20585;-66
2022/11/19 08:18:16;;;;;;;4.43;4.13;;;;;;;6.87;100.00;95991.53;4976879;28;20185;-67
2022/11/19 08:20:43;;;;;;;4.67;4.37;;;;;;;6.97;100.00;95994.38;4993708;28;20172;-68
2022/11/19 08:23:09;;;;;;;5.03;4.73;;;;;;;6.97;100.00;95997.78;4975656;28;20592;-69
2022/11/19 08:25:36;;;;;;;5.73;5.43;;;;;;;6.80;100.00;95994.22;4969550;28;20191;-69
2022/11/19 08:28:02;;;;;;;8.03;7.63;;;;;;;6.73;100.00;96000.56;4987886;28;20322;-69
2022/11/19 08:30:28;;;;;;;6.33;5.93;;;;;;;6.89;100.00;95994.72;4976806;28;20227;-68
2022/11/19 08:32:54;;;;;;;6.80;6.40;;;;;;;6.97;100.00;96003.00;4982571;28;20207;-67
2022/11/19 08:35:20;;;;;;;7.53;7.13;;;;;;;6.93;100.00;96004.47;4959899;28;20283;-67
2022/11/19 08:37:46;;;;;;;6.97;6.43;;;;;;;7.14;100.00;96008.34;4976399;28;20188;-67
2022/11/19 08:40:12;;;;;;;6.50;6.10;;;;;;;6.99;100.00;96014.00;4976244;28;20248;-69
2022/11/19 08:45:21;;;;;;;5.13;4.83;;;;;;;7.08;100.00;96012.66;4994032;28;20264;-66
2022/11/19 08:47:47;;;;;;;7.10;6.60;;;;;;;7.07;100.00;96015.50;4977964;28;20212;-69
2022/11/19 08:50:12;;;;;;;6.23;5.93;;;;;;;7.03;100.00;96020.34;4995702;28;20197;-72
2022/11/19 08:52:38;;;;;;;5.87;5.57;;;;;;;6.89;100.00;96011.13;4977432;28;20188;-66
2022/11/19 08:55:03;;;;;;;5.77;5.47;;;;;;;7.14;100.00;96013.56;4975846;28;20696;-66
2022/11/19 08:57:29;;;;;;;6.87;6.27;;;;;;;7.21;100.00;96018.69;4975616;28;20692;-66
2022/11/19 08:59:54;;;;;;;5.57;5.37;;;;;;;7.31;100.00;96021.53;4988219;28;20213;-66
2022/11/19 09:02:19;;;;;;;4.73;4.43;;;;;;;7.31;100.00;96024.13;4994957;28;20561;-68
2022/11/19 09:04:45;;;;;;;5.70;5.33;;;;;;;7.55;100.00;96017.13;4994475;28;20183;-70
2022/11/19 09:07:10;;;;;;;5.30;5.10;;;;;;;7.44;100.00;96034.38;4995078;28;20696;-69
2022/11/19 09:09:35;;;;;;;4.60;4.40;;;;;;;7.59;100.00;96026.88;4986096;28;20271;-67
2022/11/19 09:12:01;;;;;;;7.17;5.73;;;;;;;7.89;100.00;96026.78;4975707;28;20215;-65
2022/11/19 09:14:26;;;;;;;8.13;7.70;;;;;;;7.83;100.00;96030.31;4987082;28;20254;-66
2022/11/19 09:16:51;;;;;;;10.03;9.43;;;;;;;8.13;100.00;96035.41;4995091;28;20235;-70
2022/11/19 09:19:17;;;;;;;6.80;6.50;;;;;;;8.19;100.00;96030.03;4995222;28;20195;-66
2022/11/19 09:21:42;;;;;;;5.30;5.07;;;;;;;8.19;100.00;96031.88;4994800;28;20199;-66
2022/11/19 09:24:07;;;;;;;5.87;5.57;;;;;;;8.07;100.00;96031.09;4981709;28;20195;-67
2022/11/19 09:26:33;;;;;;;5.10;4.90;;;;;;;8.21;100.00;96033.22;4969115;28;20215;-69
2022/11/19 09:28:58;;;;;;;4.70;4.37;;;;;;;8.27;100.00;96036.72;4975313;28;20310;-69
2022/11/19 09:31:24;;;;;;;7.23;6.93;;;;;;;8.42;100.00;96037.03;4986418;28;20173;-67
2022/11/19 09:33:51;;;;;;;7.93;7.53;;;;;;;8.35;100.00;96044.22;4956953;28;20177;-67
2022/11/19 09:36:18;;;;;;;6.70;6.30;;;;;;;8.11;100.00;96042.66;4974817;28;20184;-67
2022/11/19 09:38:44;;;;;;;7.93;7.53;;;;;;;8.07;100.00;96046.75;4981202;28;20207;-67
2022/11/19 09:41:10;;;;;;;6.73;6.43;;;;;;;8.32;100.00;96052.50;4974057;28;20181;-67
2022/11/19 09:43:53;;;;;;;7.07;6.63;;;;;;;8.22;100.00;96060.09;4974062;28;20258;-67
2022/11/19 09:46:31;;;;;;;4.90;4.70;;;;;;;8.52;100.00;96049.53;4974630;28;20220;-66
2022/11/19 09:49:02;;;;;;;5.07;4.80;;;;;;;8.58;100.00;96052.00;4974405;28;20641;-67
2022/11/19 09:51:32;;;;;;;8.30;7.70;;;;;;;8.44;100.00;96053.28;4974492;28;20161;-67
2022/11/19 09:54:14;;;;;;;8.20;7.70;;;;;;;8.24;100.00;96051.03;4973761;28;20198;-69
2022/11/19 09:56:45;;;;;;;7.47;7.07;;;;;;;8.17;100.00;96058.19;4973848;28;20188;-68
2022/11/19 09:59:27;;;;;;;9.13;8.67;;;;;;;8.06;100.00;96052.97;4973937;28;20653;-66
2022/11/19 10:01:53;;;;;;;8.30;7.90;;;;;;;8.23;100.00;96046.84;4974595;28;20634;-67
2022/11/19 10:04:25;;;;;;;10.57;10.07;;;;;;;7.95;100.00;96038.91;4974418;28;20204;-67
2022/11/19 10:07:33;;;;;;;11.97;11.37;;;;;;;7.83;100.00;96044.13;4973558;28;20287;-67
2022/11/19 10:10:32;;;;;;;50.17;46.33;;;;;;;7.96;100.00;96044.94;4967193;28;20188;-67
2022/11/19 10:13:10;;;;;;;19.83;18.73;;;;;;;8.09;100.00;96042.06;4965666;28;20239;-67
2022/11/19 10:16:00;;;;;;;14.77;14.00;;;;;;;8.04;100.00;96045.38;4960227;28;20532;-67
2022/11/19 10:19:03;;;;;;;17.30;16.30;;;;;;;8.09;100.00;96048.09;4982701;28;20664;-67
2022/11/19 10:21:43;;;;;;;36.03;33.97;;;;;;;8.10;100.00;96041.84;4980019;28;20180;-67
2022/11/19 10:24:42;;;;;;;20.50;19.27;;;;;;;7.97;100.00;96049.91;4975724;28;20197;-67
2022/11/19 10:27:35;;;;;;;22.50;21.27;;;;;;;8.08;100.00;96043.13;4891450;29;20219;-66
2022/11/19 10:30:11;;;;;;;45.13;42.43;;;;;;;8.09;100.00;96042.88;4879023;29;20239;-67
2022/11/19 10:32:41;;;;;;;47.80;44.60;;;;;;;8.29;100.00;96045.13;4881909;29;20198;-67
2022/11/19 10:35:15;;;;;;;15.60;14.70;;;;;;;8.30;100.00;96041.53;4895481;29;20188;-67
2022/11/19 10:37:59;;;;;;;12.03;11.40;;;;;;;8.42;100.00;96041.47;4879456;29;20231;-67
2022/11/19 10:40:32;;;;;;;9.17;8.63;;;;;;;8.41;100.00;96032.88;4891613;29;20187;-68
2022/11/19 10:43:21;;;;;;;5.37;4.87;;;;;;;8.50;100.00;96041.91;4876172;29;20514;-65
2022/11/19 10:45:46;;;;;;;5.50;5.20;;;;;;;8.64;100.00;96039.81;4876217;29;20181;-65
2022/11/19 10:48:21;;;;;;;4.30;4.10;;;;;;;8.72;100.00;96042.06;4866979;29;21143;-68
2022/11/19 10:50:46;;;;;;;3.97;3.80;;;;;;;8.77;100.00;96036.94;4895279;29;20295;-67
2022/11/19 10:53:31;;;;;;;6.30;5.97;;;;;;;8.76;100.00;96036.16;4895029;29;20195;-67
2022/11/19 10:56:04;;;;;;;7.13;6.67;;;;;;;9.00;100.00;96030.81;4880397;29;20687;-66
2022/11/19 10:58:36;;;;;;;6.70;6.20;;;;;;;9.12;100.00;96028.94;4877047;29;20199;-67
2022/11/19 11:01:04;;;;;;;7.00;6.60;;;;;;;8.64;100.00;96030.16;4880231;29;20207;-66
2022/11/19 11:03:41;;;;;;;11.03;10.33;;;;;;;8.67;100.00;96023.69;4897277;29;20232;-68
2022/11/19 11:06:08;;;;;;;3.87;3.40;;;;;;;8.56;100.00;96022.72;4953677;29;20248;-65
2022/11/19 11:08:51;;;;;;;4.20;4.00;;;;;;;8.55;100.00;96022.94;4953099;29;20275;-66
2022/11/19 11:14:50;;;;;;;4.73;4.43;;;;;;;8.38;100.00;96019.47;4954156;28;20205;-69
2022/11/19 11:17:17;;;;;;;5.27;4.87;;;;;;;8.48;100.00;96025.69;4953789;29;20200;-67
2022/11/19 11:19:42;;;;;;;6.13;5.63;;;;;;;8.32;100.00;96019.38;4953844;28;20186;-66
2022/11/19 11:22:08;;;;;;;8.83;8.33;;;;;;;8.44;100.00;96027.16;4953276;28;20196;-66
2022/11/19 11:24:38;;;;;;;6.27;5.80;;;;;;;8.31;100.00;96025.59;4953099;28;20197;-66
2022/11/19 11:27:34;;;;;;;4.63;4.33;;;;;;;8.42;100.00;96021.38;4953571;28;20260;-66
2022/11/19 11:30:15;;;;;;;25.50;24.03;;;;;;;8.30;100.00;96023.25;4939145;28;20227;-66
2022/11/19 11:32:41;;;;;;;6.80;6.13;;;;;;;8.40;100.00;96023.44;4956428;28;20268;-66
2022/11/19 11:35:31;;;;;;;6.07;5.57;;;;;;;8.41;100.00;96019.03;4955985;28;20200;-67
2022/11/19 11:37:59;;;;;;;4.47;4.07;;;;;;;8.64;100.00;96021.53;4986001;28;20652;-68
2022/11/19 11:40:25;;;;;;;5.57;5.23;;;;;;;8.51;100.00;96027.03;4962338;28;20271;-68
2022/11/19 11:42:52;;;;;;;4.43;4.13;;;;;;;8.54;100.00;96027.38;4976093;28;20251;-68
2022/11/19 11:45:37;;;;;;;5.70;5.40;;;;;;;8.49;100.00;96023.88;4959593;28;20177;-72
2022/11/19 11:48:06;;;;;;;4.27;4.03;;;;;;;8.41;100.00;96019.03;4966584;28;20694;-68
2022/11/19 11:50:32;;;;;;;10.60;10.07;;;;;;;8.26;100.00;96022.88;4970289;28;20195;-67
2022/11/19 11:52:57;;;;;;;6.43;5.90;;;;;;;8.26;100.00;96022.06;4972742;28;20181;-66
2022/11/19 11:55:22;;;;;;;5.00;4.70;;;;;;;8.17;100.00;96010.41;4984680;28;20191;-68
2022/11/19 11:58:18;;;;;;;5.77;5.43;;;;;;;8.30;100.00;96020.63;4984032;28;20200;-67
2022/11/19 12:00:44;;;;;;;5.67;4.80;;;;;;;8.22;100.00;96020.94;4945405;28;20200;-69
2022/11/19 12:03:13;;;;;;;6.03;5.63;;;;;;;8.22;100.00;96026.16;4980350;28;20188;-66
2022/11/19 12:05:41;;;;;;;3.00;2.90;;;;;;;8.32;100.00;96023.78;4982485;28;20251;-68
2022/11/19 12:08:16;;;;;;;4.20;3.90;;;;;;;8.31;100.00;96020.38;4986450;28;20218;-67
2022/11/19 12:10:53;;;;;;;4.00;3.80;;;;;;;8.21;100.00;96021.97;4978797;28;20187;-66
2022/11/19 12:13:39;;;;;;;4.00;3.80;;;;;;;8.15;100.00;96020.28;4990610;28;20185;-67